Flight Track Log - Related Links

Times and Time Zones

All times are in EDT time to prevent confusion due to time zone crossing. See the AWE1253 flight status page for this flight to view local times or setup timezone preferences in your user account.

Time Position Orientation Groundspeed Altitude Reporting Facility
EDT Latitude Longitude Course Direction KTS MPH feet Rate Location/Type
Tue 09:17:38 PM 39.8833 -75.2333 232° Southwest 145 167 700  Level Philadelphia TRACON
Tue 09:18:50 PM 39.9000 -75.1667 72° East 197 227 3,200 2,182 Climbing Philadelphia TRACON
Tue 09:19:50 PM 39.9333 -75.1000 57° Northeast 220 253 5,500 2,400 Climbing Philadelphia TRACON
Tue 09:20:00 PM 39.8334 -75.6847 270° West  Level FlightAware Approximate
Tue 09:20:50 PM 39.9667 -75.1667 303° West 277 319 8,000  Level Philadelphia TRACON
Tue 09:21:00 PM 39.8074 -75.8266 232° Southwest  Level FlightAware Approximate
Tue 09:21:33 PM 39.9500 -75.2333 252° West 276 318 9,900  Level Philadelphia TRACON
Tue 09:22:00 PM 39.7349 -75.9475 232° Southwest  Level FlightAware Approximate
Tue 09:23:18 PM 39.9181 -75.4072 257° West 315 362 12,000  Level New York Center
Tue 09:24:17 PM 39.8928 -75.5219 254° West 315 362 12,100 50 Climbing New York Center
Tue 09:25:17 PM 39.8847 -75.6189 264° West 315 362 12,100 250 Level New York Center
Tue 09:26:17 PM 39.8486 -75.7300 247° West 302 348 12,600 1,600 Climbing New York Center
Tue 09:27:17 PM 39.7950 -75.8181 232° Southwest 337 388 15,300 2,797 Climbing New York Center
Tue 09:28:15 PM 39.7275 -75.9292 232° Southwest 355 409 18,100 2,672 Climbing New York Center
Tue 09:29:16 PM 39.6622 -76.0403 233° Southwest 375 432 20,600 2,430 Climbing New York Center
Tue 09:30:16 PM 39.5906 -76.1508 230° Southwest 392 451 23,000 2,382 Climbing New York Center
Tue 09:31:27 PM 39.5219 -76.2911 238° Southwest 393 452 25,800 2,279 Climbing Washington Center
Tue 09:32:25 PM 39.4503 -76.4111 232° Southwest 412 474 27,900 1,932 Climbing Washington Center
Tue 09:33:25 PM 39.3914 -76.5019 230° Southwest 417 480 29,600 1,050 Climbing Washington Center
Tue 09:34:25 PM 39.3050 -76.6297 229° Southwest 428 493 30,000 198 Climbing Washington Center
Tue 09:35:26 PM 39.2308 -76.7464 231° Southwest 428 493 30,000  Level Washington Center
Tue 09:36:26 PM 39.1589 -76.8578 230° Southwest 428 493 30,000  Level Washington Center
Tue 09:37:26 PM 39.0847 -76.9742 231° Southwest 428 493 30,000  Level Washington Center
Tue 09:38:27 PM 39.0022 -77.0819 225° Southwest 428 493 30,000  Level Washington Center
Tue 09:39:25 PM 38.9156 -77.1789 221° Southwest 422 486 30,000  Level Washington Center
Tue 09:40:26 PM 38.8244 -77.2783 220° Southwest 422 486 30,000  Level Washington Center
Tue 09:41:25 PM 38.7269 -77.3853 221° Southwest 427 491 30,000  Level Washington Center
Tue 09:42:27 PM 38.6378 -77.4842 221° Southwest 432 497 30,000  Level Washington Center
Tue 09:43:27 PM 38.5489 -77.5828 221° Southwest 432 497 30,000  Level Washington Center
Tue 09:44:25 PM 38.4575 -77.6783 219° Southwest 432 497 30,000  Level Washington Center
Tue 09:45:25 PM 38.3703 -77.7764 221° Southwest 432 497 30,000  Level Washington Center
Tue 09:46:26 PM 38.2808 -77.8692 219° Southwest 427 491 30,000  Level Washington Center
Tue 09:47:28 PM 38.1914 -77.9667 221° Southwest 427 491 30,000  Level Washington Center
Tue 09:48:26 PM 38.1019 -78.0617 220° Southwest 427 491 30,000  Level Washington Center
Tue 09:49:28 PM 38.0125 -78.1508 218° Southwest 422 486 30,000  Level Washington Center
Tue 09:50:26 PM 37.9336 -78.2350 220° Southwest 416 479 30,000  Level Washington Center
Tue 09:51:26 PM 37.8314 -78.3289 216° Southwest 410 472 30,000  Level Washington Center
Tue 09:52:27 PM 37.7397 -78.4147 217° Southwest 416 479 30,000  Level Washington Center
Tue 09:53:25 PM 37.6456 -78.5058 217° Southwest 421 484 30,000  Level Washington Center
Tue 09:54:26 PM 37.5539 -78.5914 217° Southwest 421 484 30,000  Level Washington Center
Tue 09:55:26 PM 37.4642 -78.6742 216° Southwest 416 479 30,000  Level Washington Center
Tue 09:56:27 PM 37.3786 -78.7517 216° Southwest 416 479 30,000  Level Washington Center
Tue 09:57:25 PM 37.2867 -78.8367 216° Southwest 416 479 30,000  Level Washington Center
Tue 09:58:27 PM 37.1947 -78.9214 216° Southwest 416 479 30,000  Level Washington Center
Tue 09:59:27 PM 37.1047 -79.0061 217° Southwest 416 479 30,000  Level Washington Center
Tue 10:00:25 PM 37.0039 -79.1003 217° Southwest 416 479 30,000  Level Washington Center
Tue 10:01:26 PM 36.9139 -79.1844 217° Southwest 416 479 30,000  Level Washington Center
Tue 10:02:26 PM 36.8236 -79.2686 217° Southwest 416 479 30,000  Level Washington Center
Tue 10:03:25 PM 36.7333 -79.3500 216° Southwest 410 472 30,000  Level Washington Center
Tue 10:04:25 PM 36.6453 -79.4336 217° Southwest 410 472 30,000  Level Washington Center
Tue 10:05:27 PM 36.5658 -79.5047 216° Southwest 405 466 30,000  Level Washington Center
Tue 10:06:25 PM 36.4775 -79.5856 216° Southwest 399 459 30,000  Level Washington Center
Tue 10:06:55 PM 36.4233 -79.6319 215° Southwest 402 463 30,000  Level Atlanta Center
Tue 10:07:55 PM 36.3344 -79.7114 216° Southwest 397 457 30,000  Level Atlanta Center
Tue 10:08:55 PM 36.2475 -79.7908 216° Southwest 397 457 30,000  Level Atlanta Center
Tue 10:09:55 PM 36.1667 -79.8644 216° Southwest 402 463 30,000  Level Atlanta Center
Tue 10:10:55 PM 36.0775 -79.9411 215° Southwest 402 463 30,000  Level Atlanta Center
Tue 10:12:00 PM 35.9770 -79.9949 202° Southwest  Level FlightAware Approximate
Tue 10:12:55 PM 35.8769 -80.0589 202° Southwest 396 456 30,000  Level Atlanta Center
Tue 10:13:55 PM 35.7661 -80.1128 202° Southwest 396 456 30,000  Level Atlanta Center
Tue 10:14:55 PM 35.6694 -80.1608 202° Southwest 402 463 30,000  Level Atlanta Center
Tue 10:15:55 PM 35.5711 -80.2142 204° Southwest 408 470 30,000  Level Atlanta Center
Tue 10:17:00 PM 35.4684 -80.2623 201° Southwest  Level FlightAware Approximate
Tue 10:17:55 PM 35.3553 -80.3183 201° Southwest 401 461 30,000  Level Atlanta Center
Tue 10:20:04 PM 35.1369 -80.4281 202° Southwest 398 458 30,000  Level Jacksonville Center
Tue 10:21:04 PM 35.0336 -80.4767 201° Southwest 398 458 30,000  Level Jacksonville Center
Tue 10:22:04 PM 34.9322 -80.5250 201° Southwest 398 458 30,000  Level Jacksonville Center
Tue 10:23:04 PM 34.8394 -80.5706 202° Southwest 398 458 30,000  Level Jacksonville Center
Tue 10:24:04 PM 34.7300 -80.6292 204° Southwest 392 451 30,000  Level Jacksonville Center
Tue 10:25:04 PM 34.6286 -80.6747 200° South 392 451 30,000  Level Jacksonville Center
Tue 10:26:04 PM 34.5314 -80.7225 202° Southwest 403 464 30,000  Level Jacksonville Center
Tue 10:27:04 PM 34.4339 -80.7653 200° South 395 455 30,000  Level Jacksonville Center
Tue 10:28:04 PM 34.3203 -80.8258 204° Southwest 395 455 30,000 -50 Level Jacksonville Center
Tue 10:29:04 PM 34.2250 -80.8683 200° South 383 441 29,900  Descending Jacksonville Center
Tue 10:30:04 PM 34.1256 -80.9158 202° Southwest 383 441 30,000 50 Climbing Jacksonville Center
Tue 10:31:04 PM 34.0261 -80.9631 201° Southwest 390 449 30,000  Level Jacksonville Center
Tue 10:32:04 PM 33.9267 -81.0078 200° South 390 449 30,000 -50 Level Jacksonville Center
Tue 10:33:04 PM 33.8292 -81.0525 201° Southwest 385 443 29,900 -600 Descending Jacksonville Center
Tue 10:34:04 PM 33.7278 -81.1019 202° Southwest 385 443 28,800 -992 Descending Jacksonville Center
Tue 10:35:05 PM 33.6261 -81.1514 202° Southwest 396 456 27,900 -400 Descending Jacksonville Center
Tue 10:36:04 PM 33.5244 -81.1958 200° South 396 456 28,000 50 Climbing Jacksonville Center
Tue 10:37:04 PM 33.4228 -81.2425 201° Southwest 390 449 28,000  Level Jacksonville Center
Tue 10:38:04 PM 33.3211 -81.2917 202° Southwest 390 449 28,000  Level Jacksonville Center
Tue 10:39:04 PM 33.2217 -81.3358 200° South 390 449 28,000  Level Jacksonville Center
Tue 10:40:04 PM 33.1219 -81.3847 202° Southwest 390 449 28,000 -50 Level Jacksonville Center
Tue 10:41:04 PM 33.0222 -81.4308 201° Southwest 390 449 27,900  Descending Jacksonville Center
Tue 10:42:04 PM 32.9206 -81.4769 201° Southwest 390 449 28,000 -150 Climbing Jacksonville Center
Tue 10:43:04 PM 32.8189 -81.5206 200° South 390 449 27,600 -700 Descending Jacksonville Center
Tue 10:44:04 PM 32.7192 -81.5667 201° Southwest 390 449 26,600 -800 Descending Jacksonville Center
Tue 10:45:04 PM 32.6214 -81.6150 203° Southwest 384 442 26,000 -300 Descending Jacksonville Center
Tue 10:46:04 PM 32.5258 -81.6433 194° South 389 448 26,000  Level Jacksonville Center
Tue 10:47:04 PM 32.4111 -81.6719 192° South 394 453 26,000  Level Jacksonville Center
Tue 10:48:04 PM 32.3133 -81.6956 192° South 394 453 26,000  Level Jacksonville Center
Tue 10:49:04 PM 32.1967 -81.7239 192° South 394 453 26,000  Level Jacksonville Center
Tue 10:50:04 PM 32.0906 -81.7522 193° South 394 453 26,000  Level Jacksonville Center
Tue 10:51:04 PM 31.9947 -81.7756 192° South 394 453 26,000  Level Jacksonville Center
Tue 10:52:04 PM 31.8800 -81.8014 191° South 394 453 26,000  Level Jacksonville Center
Tue 10:54:04 PM 31.6694 -81.8575 193° South 394 453 26,000  Level Jacksonville Center
Tue 10:55:04 PM 31.5611 -81.8831 191° South 394 453 26,000  Level Jacksonville Center
Tue 10:56:03 PM 31.4694 -81.9061 192° South 394 453 26,000  Level Jacksonville Center
Tue 10:57:04 PM 31.3633 -81.9314 191° South 394 453 26,000  Level Jacksonville Center
Tue 10:58:04 PM 31.2550 -81.9594 192° South 394 453 26,000  Level Jacksonville Center
Tue 10:59:04 PM 31.1486 -81.9872 193° South 394 453 26,000  Level Jacksonville Center
Tue 11:00:04 PM 31.0422 -82.0147 192° South 394 453 26,000  Level Jacksonville Center
Tue 11:01:04 PM 30.9358 -82.0375 190° South 394 453 26,000  Level Jacksonville Center
Tue 11:02:04 PM 30.8297 -82.0653 193° South 394 453 26,000 -50 Level Jacksonville Center
Tue 11:03:04 PM 30.7211 -82.0903 191° South 394 453 25,900 -550 Descending Jacksonville Center
Tue 11:04:04 PM 30.6128 -82.1008 185° South 394 453 24,900 -1,000 Descending Jacksonville Center
Tue 11:05:04 PM 30.4958 -82.1042 181° South 386 444 23,900 -450 Descending Jacksonville Center
Tue 11:06:04 PM 30.3872 -82.1125 184° South 386 444 24,000 50 Climbing Jacksonville Center
Tue 11:07:04 PM 30.2789 -82.1253 186° South 386 444 24,000  Level Jacksonville Center
Tue 11:08:04 PM 30.1744 -82.1358 185° South 386 444 24,000  Level Jacksonville Center
Tue 11:09:04 PM 30.0639 -82.1439 184° South 386 444 24,000  Level Jacksonville Center
Tue 11:10:04 PM 29.9575 -82.1567 186° South 386 444 24,000 -400 Level Jacksonville Center
Tue 11:11:04 PM 29.8489 -82.1669 185° South 386 444 23,200 -950 Descending Jacksonville Center
Tue 11:12:04 PM 29.7447 -82.1700 181° South 386 444 22,100 -1,050 Descending Jacksonville Center
Tue 11:13:04 PM 29.6383 -82.1806 185° South 386 444 21,100 -958 Descending Jacksonville Center
Tue 11:14:03 PM 29.5358 -82.1908 185° South 381 438 20,200 -950 Descending Jacksonville Center
Tue 11:15:04 PM 29.4336 -82.1986 184° South 381 438 19,200 -992 Descending Jacksonville Center
Tue 11:16:04 PM 29.3336 -82.2089 185° South 375 432 18,200 -900 Descending Jacksonville Center
Tue 11:17:04 PM 29.2314 -82.2144 183° South 370 426 17,400 -807 Descending Jacksonville Center
Tue 11:18:03 PM 29.1394 -82.2269 187° South 370 426 16,600 -900 Descending Jacksonville Center
Tue 11:19:04 PM 29.0372 -82.2325 183° South 370 426 15,600 -1,000 Descending Jacksonville Center
Tue 11:20:03 PM 28.9372 -82.2378 183° South 370 426 14,600 -1,008 Descending Jacksonville Center
Tue 11:21:03 PM 28.8369 -82.2478 185° South 365 420 13,600 -857 Descending Jacksonville Center
Tue 11:24:01 PM 28.5833 -82.2833 187° South 290 334 11,200 -828 Descending Tampa TRACON
Tue 11:25:02 PM 28.5167 -82.3167 204° Southwest 281 323 10,300 -1,091 Descending Tampa TRACON
Tue 11:26:02 PM 28.4333 -82.3667 208° Southwest 283 326 9,000 -1,000 Descending Tampa TRACON
Tue 11:27:02 PM 28.3667 -82.4000 204° Southwest 254 292 8,300 -950 Descending Tampa TRACON
Tue 11:28:02 PM 28.3167 -82.4333 210° Southwest 244 281 7,100 -1,200 Descending Tampa TRACON
Tue 11:29:02 PM 28.2500 -82.4667 204° Southwest 245 282 5,900 -1,050 Descending Tampa TRACON
Tue 11:30:02 PM 28.2000 -82.5167 221° Southwest 236 272 5,000 -1,400 Descending Tampa TRACON
Tue 11:31:02 PM 28.1333 -82.5333 192° South 211 243 3,100 -1,524 Descending Tampa TRACON
Tue 11:32:08 PM 28.0833 -82.5333 180° South 160 184 1,800 -1,182 Descending Tampa TRACON

Login

Don't have an account? Register now (free) for customized features, flight alerts, and more!